Aérodrome :
LOGIN :

S'inscrire | Disclaimer

   EN    FR    IT 

 










Légende :    VFR   VFR Marginal   IFR   IFR Intensif   IFR Très Intensif
Visi : 
Plafond : 
>= 8 km
>= 3000ft
5 à 8 km
1000 à 3000 ft
1500m à 5 km
500 à 1000 ft
800 à 1500m
200 à 500 ft
< 800m
< 200 ft
Symboles :   Orages  Brouillard  Fortes neiges  Fortes précipitations  Vent > 20 kt
SIGMETs :   Divers  Orages  Givrage  Turbulence  Onde Orograph.  Cendres Volcan.







- Altitude de l'aérodrome : 296 ft
- Code IATA : GKE


ETNG - Geilenkirchen

DERNIER METAR :
  • 141250Z 23014G30KT 9999 SCT015 04/01 Q0993 NOSIG

METARs EXPIRÉS :
  • 141150Z 24016G27KT 9999 SCT015 SCT030 04/01 Q0994 TEMPO -SHRA
  • 141050Z 23016G30KT 8000 -SHRA SCT016 BKN025 03/01 Q0995 TEMPO 7000 -SHRA BKN014

TAF TAF ETNG
Valide du 14 à 12h jusqu'au 15 à 03h UTC


141100Z 1412/1503 23014G28KT 9999 SCT018 BKN030
PROB40
TEMPO 1412/1418 25018G35KT 5000 -SHRA BKN014TCU
BECMG 1414/1416 22012G22KT
PROB40
TEMPO 1416/1424 26015G25KT 5000 -SHRA SCT014TCU BKN018
BECMG 1417/1419 22008KT
BECMG 1420/1422 BKN014
Pas de NOTAMs connus pour ce terrain.



MET'MAP, la Météo Aéronautique d'un coup d'oeil ! - Copyright ORBIFLY Décembre 2007 - Disclaimer

ORBIFLY MET'MAP TEAM :

Programmation & Développement : Alexandra Zaïnal
Conception & Développement : Baudouin d'Aumeries
Co-Programmation & Développement : Marc-Olivier Méhu
Soutien technique & logistique : Manuel Goepfert

Contact : metmap@orbifly.com




SOURCES & CREDITS :

   NOAA